sensor_id;sensor_type;location;lat;lon;timestamp;temperature;humidity
70068;DHT22;57425;51.616;6.680;2023-09-18T09:54:33;22.30;81.80
70068;DHT22;57425;51.616;6.680;2023-09-18T09:57:05;22.30;81.60
70068;DHT22;57425;51.616;6.680;2023-09-18T09:59:30;22.40;81.50
70068;DHT22;57425;51.616;6.680;2023-09-18T10:01:59;22.40;81.40
70068;DHT22;57425;51.616;6.680;2023-09-18T10:04:27;22.40;81.20
70068;DHT22;57425;51.616;6.680;2023-09-18T10:07:02;22.40;81.00
70068;DHT22;57425;51.616;6.680;2023-09-18T10:09:34;22.50;80.90
70068;DHT22;57425;51.616;6.680;2023-09-18T10:12:01;22.50;80.70
70068;DHT22;57425;51.616;6.680;2023-09-18T10:14:31;22.50;80.70
70068;DHT22;57425;51.616;6.680;2023-09-18T10:16:59;22.60;80.50
70068;DHT22;57425;51.616;6.680;2023-09-18T10:20:00;22.60;80.40
70068;DHT22;57425;51.616;6.680;2023-09-18T10:22:45;22.60;80.30
70068;DHT22;57425;51.616;6.680;2023-09-18T10:25:20;22.70;80.20
70068;DHT22;57425;51.616;6.680;2023-09-18T10:27:49;22.70;80.20
70068;DHT22;57425;51.616;6.680;2023-09-18T10:30:19;22.70;80.10
70068;DHT22;57425;51.616;6.680;2023-09-18T10:32:45;22.80;80.00
70068;DHT22;57425;51.616;6.680;2023-09-18T10:35:11;22.80;79.80
70068;DHT22;57425;51.616;6.680;2023-09-18T10:37:38;22.80;79.80
70068;DHT22;57425;51.616;6.680;2023-09-18T10:40:08;22.80;79.70
70068;DHT22;57425;51.616;6.680;2023-09-18T10:42:41;22.90;79.70
70068;DHT22;57425;51.616;6.680;2023-09-18T10:45:09;22.90;79.50
70068;DHT22;57425;51.616;6.680;2023-09-18T10:47:43;22.90;79.50
70068;DHT22;57425;51.616;6.680;2023-09-18T10:50:10;22.90;79.30
70068;DHT22;57425;51.616;6.680;2023-09-18T10:52:43;23.00;79.30
70068;DHT22;57425;51.616;6.680;2023-09-18T10:55:12;23.00;79.30
70068;DHT22;57425;51.616;6.680;2023-09-18T10:57:50;23.00;79.30
70068;DHT22;57425;51.616;6.680;2023-09-18T11:00:17;23.00;79.20
70068;DHT22;57425;51.616;6.680;2023-09-18T11:02:54;23.00;79.10
70068;DHT22;57425;51.616;6.680;2023-09-18T11:05:30;23.10;79.00
70068;DHT22;57425;51.616;6.680;2023-09-18T11:08:24;23.20;78.90
70068;DHT22;57425;51.616;6.680;2023-09-18T11:11:07;23.20;78.70
70068;DHT22;57425;51.616;6.680;2023-09-18T11:13:50;23.20;78.70
70068;DHT22;57425;51.616;6.680;2023-09-18T11:16:34;23.20;78.60
70068;DHT22;57425;51.616;6.680;2023-09-18T11:19:09;23.20;78.40
70068;DHT22;57425;51.616;6.680;2023-09-18T11:21:37;23.20;78.20
70068;DHT22;57425;51.616;6.680;2023-09-18T11:24:14;23.30;78.20
70068;DHT22;57425;51.616;6.680;2023-09-18T11:26:43;23.30;78.20
70068;DHT22;57425;51.616;6.680;2023-09-18T11:29:14;23.30;78.20
70068;DHT22;57425;51.616;6.680;2023-09-18T11:31:51;23.30;78.20
70068;DHT22;57425;51.616;6.680;2023-09-18T11:34:29;23.40;78.20
70068;DHT22;57425;51.616;6.680;2023-09-18T11:37:02;23.30;78.10
70068;DHT22;57425;51.616;6.680;2023-09-18T11:39:44;23.40;78.20
70068;DHT22;57425;51.616;6.680;2023-09-18T11:42:18;23.40;78.20
70068;DHT22;57425;51.616;6.680;2023-09-18T11:44:45;23.40;78.10
70068;DHT22;57425;51.616;6.680;2023-09-18T11:47:15;23.40;78.60
70068;DHT22;57425;51.616;6.680;2023-09-18T11:49:57;23.40;78.50
70068;DHT22;57425;51.616;6.680;2023-09-18T11:52:29;23.50;77.80
70068;DHT22;57425;51.616;6.680;2023-09-18T11:54:58;23.50;77.60
70068;DHT22;57425;51.616;6.680;2023-09-18T11:57:24;23.50;77.50
70068;DHT22;57425;51.616;6.680;2023-09-18T11:59:50;23.50;77.60
70068;DHT22;57425;51.616;6.680;2023-09-18T12:02:30;23.50;77.60
70068;DHT22;57425;51.616;6.680;2023-09-18T12:05:14;23.50;77.50
70068;DHT22;57425;51.616;6.680;2023-09-18T12:07:43;23.60;77.30
70068;DHT22;57425;51.616;6.680;2023-09-18T12:10:12;23.60;77.30
70068;DHT22;57425;51.616;6.680;2023-09-18T12:12:42;23.60;77.10
70068;DHT22;57425;51.616;6.680;2023-09-18T12:15:11;23.60;77.20
70068;DHT22;57425;51.616;6.680;2023-09-18T12:17:37;23.60;77.20
70068;DHT22;57425;51.616;6.680;2023-09-18T12:20:02;23.60;77.20
70068;DHT22;57425;51.616;6.680;2023-09-18T12:22:30;23.70;77.20
70068;DHT22;57425;51.616;6.680;2023-09-18T12:25:12;23.70;77.70
70068;DHT22;57425;51.616;6.680;2023-09-18T12:27:42;23.70;77.50
70068;DHT22;57425;51.616;6.680;2023-09-18T12:30:08;23.70;76.90
70068;DHT22;57425;51.616;6.680;2023-09-18T12:32:37;23.80;76.70
70068;DHT22;57425;51.616;6.680;2023-09-18T12:35:06;23.80;76.70
70068;DHT22;57425;51.616;6.680;2023-09-18T12:37:34;23.80;76.60
70068;DHT22;57425;51.616;6.680;2023-09-18T12:39:59;23.80;76.30
70068;DHT22;57425;51.616;6.680;2023-09-18T12:42:25;23.80;76.30
70068;DHT22;57425;51.616;6.680;2023-09-18T12:44:52;23.80;76.10
70068;DHT22;57425;51.616;6.680;2023-09-18T12:47:18;23.90;76.20
70068;DHT22;57425;51.616;6.680;2023-09-18T12:49:44;23.80;76.10
70068;DHT22;57425;51.616;6.680;2023-09-18T12:52:10;23.90;76.20
70068;DHT22;57425;51.616;6.680;2023-09-18T12:54:45;23.90;76.10
70068;DHT22;57425;51.616;6.680;2023-09-18T12:57:17;23.90;75.90
70068;DHT22;57425;51.616;6.680;2023-09-18T12:59:43;24.00;75.90
70068;DHT22;57425;51.616;6.680;2023-09-18T13:02:13;23.90;75.80
70068;DHT22;57425;51.616;6.680;2023-09-18T13:04:39;24.00;75.60
70068;DHT22;57425;51.616;6.680;2023-09-18T13:07:11;24.00;75.50
70068;DHT22;57425;51.616;6.680;2023-09-18T13:09:38;24.00;75.50
70068;DHT22;57425;51.616;6.680;2023-09-18T13:12:04;23.90;75.50
70068;DHT22;57425;51.616;6.680;2023-09-18T13:14:30;24.00;75.60
70068;DHT22;57425;51.616;6.680;2023-09-18T13:17:02;24.00;75.70
70068;DHT22;57425;51.616;6.680;2023-09-18T13:19:30;24.00;75.70
70068;DHT22;57425;51.616;6.680;2023-09-18T13:21:56;24.00;75.70
70068;DHT22;57425;51.616;6.680;2023-09-18T13:24:29;24.00;75.70
70068;DHT22;57425;51.616;6.680;2023-09-18T13:26:56;24.10;76.30
70068;DHT22;57425;51.616;6.680;2023-09-18T13:29:23;24.10;75.80
70068;DHT22;57425;51.616;6.680;2023-09-18T13:31:49;24.10;75.90
70068;DHT22;57425;51.616;6.680;2023-09-18T13:34:16;24.10;75.90
70068;DHT22;57425;51.616;6.680;2023-09-18T13:36:45;24.10;75.90
70068;DHT22;57425;51.616;6.680;2023-09-18T13:39:14;24.20;76.00
70068;DHT22;57425;51.616;6.680;2023-09-18T13:41:43;24.20;76.20
70068;DHT22;57425;51.616;6.680;2023-09-18T13:44:09;24.20;76.20
70068;DHT22;57425;51.616;6.680;2023-09-18T13:46:37;24.20;76.10
70068;DHT22;57425;51.616;6.680;2023-09-18T13:49:04;24.20;76.10
70068;DHT22;57425;51.616;6.680;2023-09-18T13:51:33;24.20;76.00
70068;DHT22;57425;51.616;6.680;2023-09-18T13:53:59;24.20;75.90
70068;DHT22;57425;51.616;6.680;2023-09-18T13:56:25;24.20;76.10
70068;DHT22;57425;51.616;6.680;2023-09-18T13:58:54;24.20;76.10
70068;DHT22;57425;51.616;6.680;2023-09-18T14:01:22;24.20;76.20
70068;DHT22;57425;51.616;6.680;2023-09-18T14:03:48;24.30;76.20
70068;DHT22;57425;51.616;6.680;2023-09-18T14:06:13;24.30;76.20
70068;DHT22;57425;51.616;6.680;2023-09-18T14:08:39;24.30;76.30
70068;DHT22;57425;51.616;6.680;2023-09-18T14:11:06;24.30;76.30
70068;DHT22;57425;51.616;6.680;2023-09-18T14:13:32;24.30;76.90
70068;DHT22;57425;51.616;6.680;2023-09-18T14:15:58;24.30;76.20
70068;DHT22;57425;51.616;6.680;2023-09-18T14:18:23;24.40;76.80
70068;DHT22;57425;51.616;6.680;2023-09-18T14:20:49;24.40;76.20
70068;DHT22;57425;51.616;6.680;2023-09-18T14:23:15;24.40;76.30
70068;DHT22;57425;51.616;6.680;2023-09-18T14:25:40;24.40;76.30
70068;DHT22;57425;51.616;6.680;2023-09-18T14:28:07;24.40;76.30
70068;DHT22;57425;51.616;6.680;2023-09-18T14:30:33;24.40;76.90
70068;DHT22;57425;51.616;6.680;2023-09-18T14:32:59;24.40;76.30
70068;DHT22;57425;51.616;6.680;2023-09-18T14:35:27;24.40;76.20
70068;DHT22;57425;51.616;6.680;2023-09-18T14:37:52;24.40;76.20
70068;DHT22;57425;51.616;6.680;2023-09-18T14:40:18;24.40;76.10
70068;DHT22;57425;51.616;6.680;2023-09-18T14:42:46;24.50;76.20
70068;DHT22;57425;51.616;6.680;2023-09-18T14:45:12;24.50;76.20
70068;DHT22;57425;51.616;6.680;2023-09-18T14:47:38;24.50;76.70
70068;DHT22;57425;51.616;6.680;2023-09-18T14:50:05;24.50;76.10
70068;DHT22;57425;51.616;6.680;2023-09-18T14:52:30;24.50;76.10
70068;DHT22;57425;51.616;6.680;2023-09-18T14:54:58;24.50;76.00
70068;DHT22;57425;51.616;6.680;2023-09-18T14:57:25;24.60;76.00
70068;DHT22;57425;51.616;6.680;2023-09-18T14:59:52;24.50;75.90
70068;DHT22;57425;51.616;6.680;2023-09-18T15:02:18;24.60;76.00
70068;DHT22;57425;51.616;6.680;2023-09-18T15:04:44;24.60;76.00
70068;DHT22;57425;51.616;6.680;2023-09-18T15:07:10;24.60;76.00
70068;DHT22;57425;51.616;6.680;2023-09-18T15:09:36;24.50;75.90
70068;DHT22;57425;51.616;6.680;2023-09-18T15:12:03;24.60;76.00
70068;DHT22;57425;51.616;6.680;2023-09-18T15:14:29;24.60;75.90
70068;DHT22;57425;51.616;6.680;2023-09-18T15:16:55;24.60;75.90
70068;DHT22;57425;51.616;6.680;2023-09-18T15:19:21;24.60;75.70
70068;DHT22;57425;51.616;6.680;2023-09-18T15:21:47;24.60;75.60
70068;DHT22;57425;51.616;6.680;2023-09-18T15:24:13;24.60;75.60
70068;DHT22;57425;51.616;6.680;2023-09-18T15:26:39;24.60;75.50
70068;DHT22;57425;51.616;6.680;2023-09-18T15:29:04;24.60;75.50
